Time;durP1;ratioP1;P1;durP2;ratioP2;P2;SDS_P1;SDS_P2;PMS_P1;PMS_P2;Temp;Humidity;BMP_temperature;BMP_pressure;BME280_temperature;BME280_humidity;BME280_pressure;Samples;Min_cycle;Max_cycle;Signal;HPM_P1;HPM_P2
2021/01/29 00:00:30;;;;;;;5.40;4.70;;;4.20;99.90;;;;;;5035926;28;20161;-83
2021/01/29 00:02:57;;;;;;;6.77;5.87;;;4.20;99.90;;;;;;5037212;28;20259;-83
2021/01/29 00:05:26;;;;;;;5.63;4.93;;;4.20;99.90;;;;;;5036923;28;20430;-83
2021/01/29 00:07:52;;;;;;;10.17;6.07;;;4.20;99.90;;;;;;5043781;28;20443;-83
2021/01/29 00:10:18;;;;;;;8.73;5.83;;;4.20;99.90;;;;;;5052731;28;20411;-83
2021/01/29 00:12:44;;;;;;;5.83;4.50;;;4.20;99.90;;;;;;5056586;28;20217;-84
2021/01/29 00:15:15;;;;;;;9.07;5.80;;;4.30;99.90;;;;;;5056513;28;20395;-81
2021/01/29 00:17:41;;;;;;;4.63;3.97;;;4.40;99.90;;;;;;5050413;28;20199;-83
2021/01/29 00:20:10;;;;;;;7.77;6.07;;;4.30;99.90;;;;;;5036145;28;20463;-83
2021/01/29 00:22:35;;;;;;;8.30;4.47;;;4.40;99.90;;;;;;5036753;28;20515;-82
2021/01/29 00:25:03;;;;;;;8.60;5.77;;;4.30;99.90;;;;;;5036414;28;20399;-83
2021/01/29 00:27:29;;;;;;;4.67;4.17;;;4.40;99.90;;;;;;5040294;28;20626;-83
2021/01/29 00:29:55;;;;;;;6.23;5.03;;;4.20;99.90;;;;;;5058976;28;20515;-83
2021/01/29 00:32:21;;;;;;;6.80;5.83;;;4.30;99.90;;;;;;5059145;28;20366;-83
2021/01/29 00:34:46;;;;;;;6.13;5.30;;;4.30;99.90;;;;;;5057159;28;20160;-83
2021/01/29 00:37:12;;;;;;;7.83;5.10;;;4.20;99.90;;;;;;5054921;28;20233;-83
2021/01/29 00:39:38;;;;;;;6.20;5.27;;;4.20;99.90;;;;;;5057076;28;20237;-83
2021/01/29 00:42:04;;;;;;;5.37;4.87;;;4.20;99.90;;;;;;5056623;28;20160;-81
2021/01/29 00:44:30;;;;;;;5.60;4.97;;;4.10;99.90;;;;;;5056814;28;20156;-82
2021/01/29 00:46:55;;;;;;;4.53;3.70;;;4.00;99.90;;;;;;5055790;28;20428;-84
2021/01/29 00:49:21;;;;;;;4.43;4.00;;;4.00;99.90;;;;;;5055651;28;20168;-82
2021/01/29 00:51:47;;;;;;;4.83;4.37;;;4.00;99.90;;;;;;5059049;28;20159;-83
2021/01/29 00:54:13;;;;;;;9.13;5.67;;;4.00;99.90;;;;;;5061514;28;20199;-83
2021/01/29 00:56:38;;;;;;;6.50;5.10;;;4.00;99.90;;;;;;5060164;28;20165;-82
2021/01/29 00:59:04;;;;;;;5.00;4.50;;;3.90;99.90;;;;;;5056799;28;20175;-82
2021/01/29 01:01:30;;;;;;;7.40;5.07;;;3.80;99.90;;;;;;5057248;28;20308;-82
2021/01/29 01:03:55;;;;;;;5.27;4.43;;;3.90;99.90;;;;;;5058692;28;20597;-83
2021/01/29 01:06:21;;;;;;;7.20;4.60;;;4.10;99.90;;;;;;5059885;28;20667;-82
2021/01/29 01:08:47;;;;;;;5.60;4.40;;;4.00;99.90;;;;;;5046458;28;20203;-83
2021/01/29 01:11:13;;;;;;;7.43;5.43;;;4.10;99.90;;;;;;5039603;28;20157;-83
2021/01/29 01:13:39;;;;;;;7.53;5.20;;;4.10;99.90;;;;;;5039485;28;20511;-82
2021/01/29 01:16:05;;;;;;;7.93;5.60;;;4.10;99.90;;;;;;5039482;28;20626;-81
2021/01/29 01:18:30;;;;;;;5.10;4.47;;;3.90;99.90;;;;;;5049308;28;20276;-81
2021/01/29 01:20:56;;;;;;;7.00;4.57;;;3.90;99.90;;;;;;5059424;28;20890;-82
2021/01/29 01:23:22;;;;;;;7.53;4.90;;;3.80;99.90;;;;;;5059599;28;20168;-82
2021/01/29 01:25:48;;;;;;;5.60;4.53;;;3.80;99.90;;;;;;5059418;28;20160;-81
2021/01/29 01:28:14;;;;;;;5.20;4.70;;;3.90;99.90;;;;;;5051462;28;20165;-83
2021/01/29 01:30:40;;;;;;;9.80;4.80;;;3.90;99.90;;;;;;5039832;28;20220;-83
2021/01/29 01:33:07;;;;;;;6.57;4.10;;;3.80;99.90;;;;;;5039141;28;20152;-82
2021/01/29 01:35:33;;;;;;;6.70;4.83;;;3.80;99.90;;;;;;5039738;28;20430;-83
2021/01/29 01:37:59;;;;;;;8.83;6.43;;;3.80;99.90;;;;;;5044534;28;20446;-83
2021/01/29 01:40:32;;;;;;;7.97;5.30;;;3.80;99.90;;;;;;5059282;28;20399;-83
2021/01/29 01:42:58;;;;;;;8.03;5.40;;;3.70;99.90;;;;;;5059451;28;20430;-83
2021/01/29 01:45:54;;;;;;;9.30;6.03;;;3.70;99.90;;;;;;5057853;28;20399;-83
2021/01/29 01:48:31;;;;;;;5.27;4.83;;;3.60;99.90;;;;;;5050124;28;20253;-82
2021/01/29 01:50:58;;;;;;;7.70;4.93;;;3.60;99.90;;;;;;5038011;28;20791;-83
2021/01/29 01:53:44;;;;;;;6.90;6.23;;;3.70;99.90;;;;;;5039608;28;20392;-83
2021/01/29 01:56:28;;;;;;;11.87;4.40;;;3.70;99.90;;;;;;5039770;28;20446;-82
2021/01/29 01:58:58;;;;;;;9.17;6.53;;;3.80;99.90;;;;;;5051196;28;20413;-82
2021/01/29 02:01:24;;;;;;;8.17;5.50;;;3.90;99.90;;;;;;5059115;28;20453;-83
2021/01/29 02:03:53;;;;;;;6.43;5.43;;;3.80;99.90;;;;;;5059198;28;20395;-83
2021/01/29 02:06:20;;;;;;;12.40;6.63;;;3.90;99.90;;;;;;5059148;28;20443;-82
2021/01/29 02:08:47;;;;;;;8.10;6.93;;;3.90;99.90;;;;;;5059177;28;20417;-82
2021/01/29 02:11:17;;;;;;;11.60;6.60;;;3.90;99.90;;;;;;5050705;28;20478;-83
2021/01/29 02:13:43;;;;;;;12.23;7.67;;;3.90;99.90;;;;;;5039282;28;20430;-82
2021/01/29 02:16:29;;;;;;;8.20;7.40;;;3.80;99.90;;;;;;5039540;28;20391;-82
2021/01/29 02:19:16;;;;;;;6.90;5.40;;;3.80;99.90;;;;;;5049658;28;20462;-83
2021/01/29 02:22:14;;;;;;;10.60;5.60;;;3.80;99.90;;;;;;5059948;28;20437;-83
2021/01/29 02:25:08;;;;;;;5.70;5.10;;;3.90;99.90;;;;;;5059719;28;20476;-83
2021/01/29 02:27:49;;;;;;;6.33;5.73;;;4.00;99.90;;;;;;5042711;28;20533;-82
2021/01/29 02:30:29;;;;;;;5.63;4.80;;;3.90;99.90;;;;;;5060794;28;20465;-82
2021/01/29 02:33:35;;;;;;;5.80;4.53;;;4.00;99.90;;;;;;5059711;28;20365;-83
2021/01/29 02:36:29;;;;;;;6.07;4.40;;;4.00;99.90;;;;;;5044925;28;20394;-83
2021/01/29 02:39:19;;;;;;;5.00;4.50;;;4.10;99.90;;;;;;5052778;28;20445;-83
2021/01/29 02:41:59;;;;;;;5.73;4.27;;;4.00;99.90;;;;;;5044455;28;20410;-82
2021/01/29 02:44:46;;;;;;;5.87;5.20;;;4.00;99.90;;;;;;5041284;28;20482;-81
2021/01/29 02:47:20;;;;;;;5.70;4.00;;;3.90;99.90;;;;;;5038103;28;20949;-81
2021/01/29 02:50:03;;;;;;;6.20;5.60;;;3.90;99.90;;;;;;5037865;28;20407;-82
2021/01/29 02:52:40;;;;;;;4.50;4.10;;;3.90;99.90;;;;;;5038787;28;20487;-82
2021/01/29 02:55:20;;;;;;;6.13;5.40;;;4.00;99.90;;;;;;5038160;28;20392;-82
2021/01/29 02:58:05;;;;;;;6.50;5.23;;;4.00;99.90;;;;;;5038185;28;20412;-82
2021/01/29 03:00:42;;;;;;;6.00;5.07;;;3.90;99.90;;;;;;5037885;28;20395;-82
2021/01/29 03:03:17;;;;;;;5.50;4.30;;;3.90;99.90;;;;;;5037945;28;20457;-81
2021/01/29 03:05:56;;;;;;;6.10;3.97;;;4.00;99.90;;;;;;5038101;28;20456;-82
2021/01/29 03:08:26;;;;;;;7.80;4.87;;;4.00;99.90;;;;;;5043512;28;21036;-82
2021/01/29 03:11:30;;;;;;;4.77;4.17;;;4.00;99.90;;;;;;5058407;28;20395;-82
2021/01/29 03:14:20;;;;;;;8.93;4.97;;;4.00;99.90;;;;;;5057388;28;20406;-82
2021/01/29 03:16:53;;;;;;;6.90;4.27;;;4.00;99.90;;;;;;5057356;28;20444;-82
2021/01/29 03:19:34;;;;;;;4.50;3.60;;;3.90;99.90;;;;;;5043839;28;20438;-82
2021/01/29 03:22:06;;;;;;;4.40;4.03;;;3.90;99.90;;;;;;5037603;28;20396;-82
2021/01/29 03:24:38;;;;;;;6.10;4.43;;;3.90;99.90;;;;;;5037992;28;20404;-82
2021/01/29 03:27:14;;;;;;;11.03;5.50;;;4.00;99.90;;;;;;5037333;28;20454;-81
2021/01/29 03:29:46;;;;;;;5.97;4.10;;;4.00;99.90;;;;;;5037284;28;20420;-82
2021/01/29 03:32:15;;;;;;;5.20;4.70;;;4.00;99.90;;;;;;5037826;28;20401;-83
2021/01/29 03:34:51;;;;;;;6.50;3.80;;;4.10;99.90;;;;;;5037690;28;20370;-82
2021/01/29 03:37:27;;;;;;;5.10;4.00;;;4.00;99.90;;;;;;5038302;28;20454;-83
2021/01/29 03:39:54;;;;;;;5.40;4.37;;;4.10;99.90;;;;;;5056714;28;20444;-82
2021/01/29 03:42:30;;;;;;;3.60;3.30;;;4.10;99.90;;;;;;5058472;28;20403;-83
2021/01/29 03:45:09;;;;;;;5.10;4.70;;;4.00;99.90;;;;;;5076045;28;20411;-83
2021/01/29 03:47:40;;;;;;;6.10;3.80;;;3.90;99.90;;;;;;5064033;28;20448;-84
2021/01/29 03:50:24;;;;;;;5.93;3.97;;;4.00;99.90;;;;;;5041583;28;20842;-83
2021/01/29 03:53:06;;;;;;;5.70;4.50;;;4.20;99.90;;;;;;5041107;28;20396;-83
2021/01/29 03:55:43;;;;;;;3.83;3.50;;;4.20;99.90;;;;;;5042182;28;20880;-84
2021/01/29 03:58:30;;;;;;;3.53;3.23;;;4.20;99.90;;;;;;5043969;28;20418;-83
2021/01/29 04:01:10;;;;;;;3.60;3.30;;;4.20;99.90;;;;;;5062251;28;20607;-82
2021/01/29 04:03:45;;;;;;;3.27;2.90;;;4.30;99.90;;;;;;5069185;28;20387;-83
2021/01/29 04:06:19;;;;;;;3.67;3.30;;;4.30;99.90;;;;;;5078337;28;20446;-82
2021/01/29 04:09:00;;;;;;;7.70;3.13;;;4.30;99.90;;;;;;5066366;28;20529;-84
2021/01/29 04:11:35;;;;;;;3.93;3.33;;;4.20;99.90;;;;;;5042528;28;20393;-83
2021/01/29 04:14:06;;;;;;;3.97;3.40;;;4.30;99.90;;;;;;5059208;28;20402;-83
2021/01/29 04:16:37;;;;;;;3.93;3.60;;;4.30;99.90;;;;;;5060489;28;20369;-83
2021/01/29 04:19:08;;;;;;;3.63;3.20;;;4.30;99.90;;;;;;5053514;28;20471;-83
2021/01/29 04:21:38;;;;;;;3.93;3.23;;;4.30;99.90;;;;;;5043104;28;20385;-82
2021/01/29 04:24:12;;;;;;;3.33;3.10;;;4.20;99.90;;;;;;5044819;28;20412;-83
2021/01/29 04:26:59;;;;;;;3.80;3.30;;;4.10;99.90;;;;;;5048261;28;20451;-84
2021/01/29 04:29:30;;;;;;;4.00;3.60;;;4.10;99.90;;;;;;5055767;28;20483;-83
2021/01/29 04:32:01;;;;;;;4.03;3.33;;;4.20;99.90;;;;;;5060016;28;20374;-83
2021/01/29 04:34:31;;;;;;;4.10;3.80;;;4.30;99.90;;;;;;5059166;28;20394;-83
2021/01/29 04:37:02;;;;;;;6.90;3.17;;;4.40;99.90;;;;;;5059641;28;20794;-83
2021/01/29 04:39:44;;;;;;;3.40;3.10;;;4.40;99.90;;;;;;5061316;28;20412;-82
2021/01/29 04:42:38;;;;;;;3.00;2.80;;;4.50;99.90;;;;;;5061756;28;20918;-82
2021/01/29 04:45:29;;;;;;;4.63;3.50;;;4.70;99.90;;;;;;5061764;28;20422;-82
2021/01/29 04:48:26;;;;;;;5.90;3.10;;;4.70;99.90;;;;;;5039557;28;20494;-82
2021/01/29 04:51:23;;;;;;;6.67;4.00;;;4.60;99.90;;;;;;5022355;28;20433;-82
2021/01/29 04:54:23;;;;;;;3.73;3.43;;;4.80;99.90;;;;;;5022124;28;20387;-82
2021/01/29 04:57:23;;;;;;;24.63;4.50;;;4.70;99.90;;;;;;5021985;28;20404;-82
2021/01/29 05:00:14;;;;;;;3.53;3.23;;;4.70;99.90;;;;;;5035004;28;20935;-82
2021/01/29 05:03:08;;;;;;;4.53;3.50;;;4.80;99.90;;;;;;5042917;28;20408;-83
2021/01/29 05:06:03;;;;;;;4.40;2.93;;;4.70;99.90;;;;;;5055132;28;20382;-82
2021/01/29 05:08:53;;;;;;;4.03;3.63;;;4.80;99.90;;;;;;5061939;28;20426;-81
2021/01/29 05:11:57;;;;;;;4.40;3.47;;;4.80;99.90;;;;;;5062142;28;20390;-82
2021/01/29 05:14:48;;;;;;;5.00;3.80;;;4.90;99.90;;;;;;5046432;28;20457;-82
2021/01/29 05:17:44;;;;;;;4.53;3.40;;;5.00;99.90;;;;;;5043303;28;20411;-82
2021/01/29 05:20:37;;;;;;;4.23;3.63;;;5.00;99.90;;;;;;5041143;28;20520;-83
2021/01/29 05:23:38;;;;;;;5.13;3.23;;;5.10;99.90;;;;;;5019609;28;20978;-82
2021/01/29 05:26:25;;;;;;;3.30;3.10;;;5.00;99.90;;;;;;5018546;28;20427;-82
2021/01/29 05:29:15;;;;;;;3.50;3.20;;;5.00;99.90;;;;;;5018516;28;20809;-82
2021/01/29 05:32:05;;;;;;;3.90;3.47;;;5.10;99.90;;;;;;5005986;28;20452;-82
2021/01/29 05:34:48;;;;;;;4.77;3.80;;;5.00;99.90;;;;;;5018672;28;20371;-82
2021/01/29 05:37:45;;;;;;;5.83;3.60;;;5.00;99.90;;;;;;5019202;28;20434;-82
2021/01/29 05:40:42;;;;;;;4.87;4.00;;;5.00;99.90;;;;;;5020078;28;20412;-82
2021/01/29 05:43:36;;;;;;;3.47;3.20;;;4.90;99.90;;;;;;5032534;28;20412;-81
2021/01/29 05:46:26;;;;;;;3.93;3.60;;;5.00;99.90;;;;;;5030688;28;20406;-82
2021/01/29 05:49:09;;;;;;;6.33;4.40;;;5.10;99.90;;;;;;5024805;28;20465;-81
2021/01/29 05:51:59;;;;;;;4.47;3.50;;;5.00;99.90;;;;;;5018628;28;20406;-82
2021/01/29 05:55:00;;;;;;;4.80;4.30;;;5.10;99.90;;;;;;5033402;28;20493;-82
2021/01/29 05:57:57;;;;;;;4.70;3.63;;;5.00;99.90;;;;;;5039518;28;20378;-82
2021/01/29 06:01:00;;;;;;;6.73;4.43;;;5.00;99.90;;;;;;5055950;28;20479;-82
2021/01/29 06:03:45;;;;;;;5.00;4.20;;;5.00;99.90;;;;;;5055096;28;20574;-82
2021/01/29 06:06:41;;;;;;;8.00;4.77;;;5.10;99.90;;;;;;5040076;28;20418;-83
2021/01/29 06:09:28;;;;;;;4.83;4.43;;;5.10;99.90;;;;;;5045464;28;20393;-82
2021/01/29 06:12:16;;;;;;;6.73;3.97;;;5.10;99.90;;;;;;5053913;28;20422;-82
2021/01/29 06:15:11;;;;;;;4.33;3.93;;;5.10;99.90;;;;;;5040072;28;20394;-82
2021/01/29 06:17:51;;;;;;;5.53;4.10;;;5.20;99.90;;;;;;5039955;28;20407;-82
2021/01/29 06:20:52;;;;;;;4.47;4.07;;;5.30;99.90;;;;;;5039183;28;20608;-82
2021/01/29 06:23:45;;;;;;;4.03;3.73;;;5.30;99.90;;;;;;5039017;28;20449;-82
2021/01/29 06:26:42;;;;;;;5.03;4.47;;;5.20;99.90;;;;;;5026447;28;20460;-82
2021/01/29 06:29:23;;;;;;;5.20;4.80;;;5.20;99.90;;;;;;5044009;28;20420;-83
2021/01/29 06:32:19;;;;;;;4.23;3.83;;;5.30;99.90;;;;;;5066784;28;20417;-83
2021/01/29 06:35:00;;;;;;;6.30;4.13;;;5.30;99.90;;;;;;5061288;28;20423;-83
2021/01/29 06:37:51;;;;;;;4.30;3.70;;;5.40;99.90;;;;;;5053304;28;20384;-83
2021/01/29 06:40:43;;;;;;;5.10;3.73;;;5.50;99.90;;;;;;5055197;28;20409;-83
2021/01/29 06:43:39;;;;;;;9.50;5.23;;;5.50;99.90;;;;;;5060891;28;20382;-82
2021/01/29 06:46:28;;;;;;;5.23;4.70;;;5.50;99.90;;;;;;5060667;28;20373;-83
2021/01/29 06:49:24;;;;;;;5.10;4.50;;;5.50;99.90;;;;;;5060276;28;20510;-83
2021/01/29 06:52:14;;;;;;;10.17;5.33;;;5.50;99.90;;;;;;5060724;28;20369;-83
2021/01/29 06:54:57;;;;;;;6.43;4.40;;;5.50;99.90;;;;;;5060520;28;20381;-84
2021/01/29 06:57:44;;;;;;;4.93;4.03;;;5.50;99.90;;;;;;5062228;28;20817;-83
2021/01/29 07:00:37;;;;;;;10.27;5.63;;;5.60;99.90;;;;;;5048560;28;20394;-83
2021/01/29 07:03:28;;;;;;;5.00;4.30;;;5.60;99.90;;;;;;5042925;28;20396;-83
2021/01/29 07:06:16;;;;;;;6.80;5.43;;;5.60;99.90;;;;;;5047235;28;20447;-83
2021/01/29 07:09:00;;;;;;;5.03;4.47;;;5.70;99.90;;;;;;5048666;28;20374;-83
2021/01/29 07:12:00;;;;;;;7.20;5.07;;;5.80;99.90;;;;;;5045763;28;20786;-83
2021/01/29 07:14:43;;;;;;;4.70;4.30;;;5.90;99.90;;;;;;5052138;28;20388;-82
2021/01/29 07:17:19;;;;;;;6.90;5.00;;;5.80;99.90;;;;;;5054886;28;20398;-83
2021/01/29 07:20:20;;;;;;;6.33;5.60;;;5.90;99.90;;;;;;5064143;28;20465;-83
2021/01/29 07:23:04;;;;;;;7.00;5.30;;;5.90;99.90;;;;;;5043107;28;20462;-83
2021/01/29 07:25:42;;;;;;;9.03;5.63;;;5.90;99.90;;;;;;5037596;28;20442;-81
2021/01/29 07:28:40;;;;;;;9.67;5.40;;;5.90;99.90;;;;;;5049664;28;20467;-80
2021/01/29 07:31:22;;;;;;;8.77;6.33;;;6.00;99.90;;;;;;5056449;28;20402;-82
2021/01/29 07:34:27;;;;;;;7.73;5.30;;;6.00;99.90;;;;;;5056073;28;20402;-82
2021/01/29 07:37:27;;;;;;;7.90;6.53;;;6.00;99.90;;;;;;5052175;28;20939;-82
2021/01/29 07:40:20;;;;;;;13.40;5.00;;;6.10;99.90;;;;;;5055160;28;20450;-82
2021/01/29 07:43:06;;;;;;;5.70;5.03;;;6.10;99.90;;;;;;5044310;28;20419;-83
2021/01/29 07:45:55;;;;;;;9.80;5.90;;;6.20;99.90;;;;;;5031970;28;20383;-82
2021/01/29 07:48:46;;;;;;;6.80;5.07;;;6.20;99.90;;;;;;5044603;28;20561;-82
2021/01/29 07:51:25;;;;;;;5.07;4.40;;;6.30;99.90;;;;;;5054435;28;20523;-82
2021/01/29 07:54:28;;;;;;;6.87;4.93;;;6.40;99.90;;;;;;5031200;28;20417;-83
2021/01/29 07:57:18;;;;;;;14.03;4.10;;;6.50;99.90;;;;;;5035316;28;20420;-83
2021/01/29 08:00:07;;;;;;;5.77;4.50;;;6.60;99.90;;;;;;5033576;28;20410;-82
2021/01/29 08:03:09;;;;;;;6.07;3.50;;;6.70;99.90;;;;;;5031757;28;20402;-82
2021/01/29 08:06:00;;;;;;;3.47;3.17;;;6.80;99.90;;;;;;5031540;28;20443;-84
2021/01/29 08:08:30;;;;;;;4.30;3.90;;;6.80;99.90;;;;;;5031019;28;20433;-82
2021/01/29 08:10:59;;;;;;;2.93;2.70;;;7.00;99.90;;;;;;5042845;28;20386;-82
2021/01/29 08:13:50;;;;;;;3.70;3.33;;;7.20;99.90;;;;;;5032771;28;20390;-83
2021/01/29 08:16:50;;;;;;;2.97;2.67;;;7.20;99.90;;;;;;5034622;28;20456;-82
2021/01/29 08:19:29;;;;;;;3.00;2.53;;;7.20;99.90;;;;;;5033796;28;20468;-82
2021/01/29 08:22:22;;;;;;;3.00;2.53;;;7.30;99.90;;;;;;5031552;28;20731;-82
2021/01/29 08:25:04;;;;;;;2.87;2.53;;;7.40;99.90;;;;;;5031485;28;20530;-82
2021/01/29 08:28:01;;;;;;;3.73;2.33;;;7.40;99.90;;;;;;5035634;28;20489;-82
2021/01/29 08:31:00;;;;;;;3.97;3.50;;;7.40;99.90;;;;;;5031810;28;20476;-83
2021/01/29 08:33:54;;;;;;;2.57;2.30;;;7.50;99.90;;;;;;5024681;28;20442;-82
2021/01/29 08:36:37;;;;;;;4.00;2.63;;;7.60;99.90;;;;;;5033153;28;20489;-83
2021/01/29 08:39:29;;;;;;;6.20;2.50;;;7.60;99.90;;;;;;5034220;28;20949;-82
2021/01/29 08:42:17;;;;;;;2.07;1.80;;;7.70;99.90;;;;;;5033707;28;20431;-83
2021/01/29 08:45:22;;;;;;;1.80;1.70;;;7.80;99.90;;;;;;5029406;28;20468;-81
2021/01/29 08:48:22;;;;;;;6.37;1.47;;;7.90;99.90;;;;;;5034647;28;20859;-81
2021/01/29 08:51:09;;;;;;;1.50;1.40;;;8.00;99.90;;;;;;5034410;28;20957;-82
2021/01/29 08:54:10;;;;;;;0.97;0.97;;;8.10;99.90;;;;;;5029426;28;20440;-82
2021/01/29 08:57:02;;;;;;;1.20;1.10;;;8.30;99.90;;;;;;5036177;28;20912;-82
2021/01/29 08:59:33;;;;;;;1.40;1.30;;;8.40;99.90;;;;;;5032357;28;20398;-82
2021/01/29 09:02:33;;;;;;;2.27;1.93;;;8.60;99.90;;;;;;5033341;28;20423;-82
2021/01/29 09:05:08;;;;;;;1.57;1.47;;;8.60;99.90;;;;;;5034496;28;20386;-83
2021/01/29 09:07:39;;;;;;;2.80;2.30;;;8.70;99.90;;;;;;5034573;28;20442;-83
2021/01/29 09:10:31;;;;;;;1.50;1.40;;;8.70;99.90;;;;;;5038163;28;20409;-82
2021/01/29 09:13:00;;;;;;;1.00;1.00;;;8.70;99.90;;;;;;5037583;28;20428;-81
2021/01/29 09:15:46;;;;;;;1.37;1.10;;;8.80;99.90;;;;;;5049424;28;20499;-82
2021/01/29 09:18:54;;;;;;;1.03;0.97;;;8.90;99.90;;;;;;5043160;28;20485;-82
2021/01/29 09:21:59;;;;;;;1.10;1.00;;;8.80;99.90;;;;;;5040797;28;20492;-82
2021/01/29 09:24:52;;;;;;;1.00;1.00;;;8.70;99.90;;;;;;5034420;28;20765;-82
2021/01/29 09:27:34;;;;;;;1.00;1.00;;;8.70;99.90;;;;;;5044813;28;20421;-81
2021/01/29 09:30:08;;;;;;;1.30;1.20;;;8.70;99.90;;;;;;5055107;28;20942;-81
2021/01/29 09:33:10;;;;;;;0.90;0.90;;;8.70;99.90;;;;;;5044822;28;20577;-82
2021/01/29 09:35:59;;;;;;;1.00;1.00;;;8.70;99.90;;;;;;5027419;28;20422;-82
2021/01/29 09:38:31;;;;;;;1.10;1.00;;;8.70;99.90;;;;;;5024739;28;20443;-82
2021/01/29 09:41:21;;;;;;;1.40;1.30;;;8.60;99.90;;;;;;5035791;28;20432;-81
2021/01/29 09:43:56;;;;;;;1.00;1.00;;;8.60;99.90;;;;;;5038127;28;20461;-81
2021/01/29 09:46:29;;;;;;;0.90;0.90;;;8.60;99.90;;;;;;5037884;28;20458;-81
2021/01/29 09:48:59;;;;;;;1.00;1.00;;;8.60;99.90;;;;;;5035208;28;20400;-81
2021/01/29 09:51:42;;;;;;;0.90;0.90;;;8.60;99.90;;;;;;5042616;28;20392;-82
2021/01/29 09:54:17;;;;;;;0.90;0.90;;;8.60;99.90;;;;;;5036870;28;20909;-81
2021/01/29 09:56:53;;;;;;;2.03;1.30;;;8.60;99.90;;;;;;5038453;28;20412;-82
2021/01/29 09:59:33;;;;;;;2.40;1.03;;;8.50;99.90;;;;;;5036648;28;20829;-82
2021/01/29 10:02:29;;;;;;;1.00;1.00;;;8.40;99.90;;;;;;5043692;28;20409;-82
2021/01/29 10:05:17;;;;;;;0.90;0.90;;;8.50;99.90;;;;;;5028019;28;20402;-80
2021/01/29 10:07:53;;;;;;;1.50;1.27;;;8.40;99.90;;;;;;5030942;28;20448;-80
2021/01/29 10:10:35;;;;;;;1.27;1.17;;;8.40;99.90;;;;;;5038686;28;20438;-80
2021/01/29 10:13:09;;;;;;;0.90;0.90;;;8.30;99.90;;;;;;5038585;28;20409;-79
2021/01/29 10:15:37;;;;;;;1.20;1.10;;;8.20;99.90;;;;;;5038007;28;20386;-81
2021/01/29 10:18:11;;;;;;;1.67;1.57;;;8.40;99.90;;;;;;5040831;28;20402;-79
2021/01/29 10:20:38;;;;;;;1.00;1.00;;;8.40;99.90;;;;;;5035984;28;20435;-81
2021/01/29 10:23:28;;;;;;;1.00;0.93;;;8.40;99.90;;;;;;5040153;28;20798;-81
2021/01/29 10:26:09;;;;;;;0.90;0.90;;;8.30;99.90;;;;;;5042143;28;20429;-80
2021/01/29 10:29:11;;;;;;;1.00;1.00;;;8.30;99.90;;;;;;5027433;28;20402;-81
2021/01/29 10:32:09;;;;;;;1.10;1.00;;;8.40;99.90;;;;;;5041480;28;20390;-81
2021/01/29 10:34:54;;;;;;;1.30;1.17;;;8.40;99.90;;;;;;5023919;28;20931;-79
2021/01/29 10:37:30;;;;;;;1.87;1.30;;;8.40;99.90;;;;;;5039396;28;20409;-79
2021/01/29 10:40:30;;;;;;;1.10;1.00;;;8.40;99.90;;;;;;5041579;28;20384;-80
2021/01/29 10:43:10;;;;;;;1.43;1.20;;;8.40;99.90;;;;;;5036321;28;20390;-80
2021/01/29 10:45:55;;;;;;;1.43;1.10;;;8.40;99.90;;;;;;5038753;28;20390;-78
2021/01/29 10:48:40;;;;;;;1.17;1.07;;;8.50;99.90;;;;;;5040938;28;20464;-81
2021/01/29 10:51:18;;;;;;;1.43;1.30;;;8.60;99.90;;;;;;5032021;28;20894;-80
2021/01/29 10:53:45;;;;;;;1.43;1.20;;;8.50;99.90;;;;;;5036046;28;20772;-81
2021/01/29 10:56:18;;;;;;;1.30;1.20;;;8.50;99.90;;;;;;5038247;28;20904;-81
2021/01/29 10:58:54;;;;;;;1.00;1.00;;;8.60;99.90;;;;;;5039866;28;20412;-80
2021/01/29 11:01:40;;;;;;;1.17;1.10;;;8.60;99.90;;;;;;5040742;28;20401;-82
2021/01/29 11:04:20;;;;;;;2.80;1.20;;;8.50;99.90;;;;;;5037007;28;20485;-81
2021/01/29 11:06:51;;;;;;;2.10;1.17;;;8.60;99.90;;;;;;5035291;28;20433;-80
2021/01/29 11:09:25;;;;;;;3.93;1.40;;;8.60;99.90;;;;;;5035945;28;20510;-82
2021/01/29 11:12:15;;;;;;;1.20;1.10;;;8.70;99.90;;;;;;5036554;28;20402;-81
2021/01/29 11:14:52;;;;;;;1.43;1.33;;;8.70;99.90;;;;;;5039682;28;20406;-81
2021/01/29 11:17:25;;;;;;;1.10;1.00;;;8.70;99.90;;;;;;5043320;28;20423;-81
2021/01/29 11:19:53;;;;;;;1.63;1.27;;;8.80;99.90;;;;;;5042976;28;20485;-80
2021/01/29 11:22:43;;;;;;;3.90;1.60;;;8.80;99.90;;;;;;5048807;28;20417;-80
2021/01/29 11:25:32;;;;;;;1.47;1.30;;;8.80;99.90;;;;;;5045263;28;20430;-80
2021/01/29 11:28:09;;;;;;;1.20;1.10;;;8.80;99.90;;;;;;5039583;28;20447;-82
2021/01/29 11:30:46;;;;;;;2.27;1.20;;;8.80;99.90;;;;;;5036341;28;20469;-81
2021/01/29 11:33:13;;;;;;;4.53;1.83;;;8.90;99.90;;;;;;5027784;28;20504;-81
2021/01/29 11:35:52;;;;;;;1.80;1.53;;;8.90;99.90;;;;;;5031526;28;20436;-82
2021/01/29 11:38:39;;;;;;;3.53;1.43;;;9.00;99.90;;;;;;5031164;28;20396;-80
2021/01/29 11:41:32;;;;;;;1.97;1.63;;;9.00;99.90;;;;;;5034169;28;20481;-83
2021/01/29 11:44:25;;;;;;;1.87;1.57;;;9.10;99.90;;;;;;5030924;28;20448;-82
2021/01/29 11:47:03;;;;;;;2.20;1.63;;;9.10;99.90;;;;;;5030323;28;20499;-82
2021/01/29 11:49:35;;;;;;;1.70;1.60;;;9.10;99.90;;;;;;5028320;28;20407;-81
2021/01/29 11:52:32;;;;;;;13.10;1.83;;;9.10;99.90;;;;;;5047488;28;20382;-82
2021/01/29 11:55:18;;;;;;;2.33;1.73;;;9.10;99.90;;;;;;5036739;28;20444;-82
2021/01/29 11:57:55;;;;;;;3.23;1.60;;;9.10;99.90;;;;;;5029234;28;20394;-82
2021/01/29 12:00:40;;;;;;;2.87;1.33;;;9.10;99.90;;;;;;5031214;28;20401;-82
2021/01/29 12:03:16;;;;;;;5.17;2.27;;;9.10;99.90;;;;;;5033753;28;20435;-82
2021/01/29 12:05:56;;;;;;;7.67;2.17;;;9.10;99.90;;;;;;5033190;28;20443;-82
2021/01/29 12:08:44;;;;;;;4.07;2.10;;;9.10;99.90;;;;;;5034013;28;20426;-81
2021/01/29 12:11:22;;;;;;;2.50;1.97;;;9.20;99.90;;;;;;5035554;28;20722;-82
2021/01/29 12:14:12;;;;;;;2.67;1.70;;;9.20;99.90;;;;;;5033778;28;20390;-83
2021/01/29 12:16:39;;;;;;;6.60;2.83;;;9.20;99.90;;;;;;5027183;28;20406;-82
2021/01/29 12:19:08;;;;;;;3.93;1.47;;;9.20;99.90;;;;;;5039818;28;20527;-82
2021/01/29 12:21:44;;;;;;;3.30;2.23;;;9.30;99.90;;;;;;5047290;28;20434;-83
2021/01/29 12:24:32;;;;;;;4.30;2.93;;;9.30;99.90;;;;;;5029657;28;20888;-83
2021/01/29 12:27:07;;;;;;;2.70;2.50;;;9.40;99.90;;;;;;5029903;28;20493;-82
2021/01/29 12:29:57;;;;;;;4.17;1.70;;;9.40;99.90;;;;;;5034546;28;20390;-82
2021/01/29 12:32:46;;;;;;;6.13;2.83;;;9.40;99.90;;;;;;5032948;28;20456;-83
2021/01/29 12:35:33;;;;;;;8.30;2.60;;;9.50;99.90;;;;;;5033753;28;20390;-83
2021/01/29 12:38:09;;;;;;;4.33;1.87;;;9.50;99.90;;;;;;5032034;28;20389;-83
2021/01/29 12:40:41;;;;;;;4.20;2.30;;;9.60;99.90;;;;;;5030026;28;20443;-83
2021/01/29 12:43:27;;;;;;;8.43;2.60;;;9.60;99.90;;;;;;5031718;28;20398;-83
2021/01/29 12:46:00;;;;;;;4.70;1.40;;;9.60;99.90;;;;;;5030673;28;20393;-83
2021/01/29 12:48:50;;;;;;;2.00;1.90;;;9.60;99.90;;;;;;5032731;28;20456;-83
2021/01/29 12:51:37;;;;;;;1.87;1.67;;;9.60;99.90;;;;;;5032060;28;20880;-82
2021/01/29 12:54:19;;;;;;;2.20;1.70;;;9.70;99.90;;;;;;5034333;28;20505;-83
2021/01/29 12:56:54;;;;;;;4.60;1.77;;;9.70;99.90;;;;;;5036078;28;20398;-83
2021/01/29 12:59:34;;;;;;;15.00;1.80;;;9.70;99.90;;;;;;5036044;28;20397;-83
2021/01/29 13:02:14;;;;;;;2.90;1.90;;;9.70;99.90;;;;;;5035594;28;20401;-83
2021/01/29 13:04:48;;;;;;;3.17;1.83;;;9.70;99.90;;;;;;5038542;28;20765;-83
2021/01/29 13:07:25;;;;;;;11.20;2.00;;;9.70;99.90;;;;;;5039065;28;20421;-83
2021/01/29 13:10:28;;;;;;;3.10;1.50;;;9.90;99.90;;;;;;5030716;28;20429;-83
2021/01/29 13:13:06;;;;;;;3.63;1.83;;;9.90;99.90;;;;;;5044434;28;20401;-83
2021/01/29 13:16:04;;;;;;;5.20;1.83;;;10.00;99.90;;;;;;5044818;28;20420;-83
2021/01/29 13:18:49;;;;;;;7.57;2.50;;;9.80;99.90;;;;;;5050827;28;20635;-83
2021/01/29 13:21:26;;;;;;;1.83;1.50;;;9.90;99.90;;;;;;5034659;28;20824;-83
2021/01/29 13:23:55;;;;;;;6.47;1.80;;;9.90;99.90;;;;;;5035028;28;20432;-83
2021/01/29 13:26:41;;;;;;;2.43;1.70;;;9.90;99.90;;;;;;5035663;28;20386;-83
2021/01/29 13:29:28;;;;;;;2.67;1.70;;;10.00;99.90;;;;;;5037168;28;20394;-82
2021/01/29 13:31:59;;;;;;;4.63;1.63;;;10.00;99.90;;;;;;5033572;28;20381;-83
2021/01/29 13:34:30;;;;;;;3.07;2.10;;;10.00;99.90;;;;;;5037495;28;20488;-83
2021/01/29 13:37:04;;;;;;;3.87;1.90;;;10.10;99.90;;;;;;5031419;28;20477;-83
2021/01/29 13:39:40;;;;;;;2.83;1.70;;;10.30;99.90;;;;;;5036443;28;20398;-81
2021/01/29 13:42:22;;;;;;;1.37;1.27;;;10.30;99.90;;;;;;5037946;28;20946;-82
2021/01/29 13:44:53;;;;;;;5.70;1.80;;;10.20;99.90;;;;;;5034205;28;20413;-83
2021/01/29 13:47:28;;;;;;;3.53;1.80;;;10.10;99.90;;;;;;5031928;28;20451;-82
2021/01/29 13:49:55;;;;;;;1.83;1.70;;;10.10;99.90;;;;;;5039207;28;20401;-83
2021/01/29 13:52:30;;;;;;;2.83;1.43;;;10.10;99.90;;;;;;5042571;28;20425;-83
2021/01/29 13:55:10;;;;;;;4.13;1.80;;;10.10;99.90;;;;;;5032182;28;20393;-83
2021/01/29 13:57:47;;;;;;;3.17;1.50;;;10.10;99.90;;;;;;5035395;28;20419;-83
2021/01/29 14:00:17;;;;;;;6.43;1.70;;;10.00;99.90;;;;;;5036756;28;20432;-82
2021/01/29 14:02:51;;;;;;;4.30;1.27;;;9.90;99.90;;;;;;5036312;28;20401;-83
2021/01/29 14:05:22;;;;;;;3.70;1.73;;;9.90;99.90;;;;;;5033192;28;20397;-83
2021/01/29 14:07:49;;;;;;;4.40;2.00;;;9.70;99.90;;;;;;5032068;28;20881;-83